KHOE

Details ICAO KHOE
Name HOMERVILLE
Region United States
Timezone America/New_York (UTC-5.0)
Plans Departing 0
Arriving 1
Stats Elevation 186 ft / 57 m (AMSL)
Location 31.055906° -82.774143°
Runways 1
Magnetic Variation 5.842° W
Sunrise 2017-12-16 12:24:04 UTC / 2017-12-16 07:24:04 Local
Sunset 2017-12-16 22:32:23 UTC / 2017-12-16 17:32:23 Local
Advertisement - Login to hide

Runways

ID Width Length Bearing (true) Bearing (mag) Surface Threshold Offset Overrun Length
14 75 ft / 23 m 4,003 ft / 1,220 m 135.52° 141.36° Asphalt 0 ft / 0 m 0 ft / 0 m
32 75 ft / 23 m 4,003 ft / 1,220 m 315.53° 321.37° Asphalt 0 ft / 0 m 0 ft / 0 m

Map

Weather


0- 5 10 15 20 25 30 35+ Temperature / ° C

Clouds and Precipitation
Forecast for 2017-12-16 12:00 UTC. Updated 26 minutes ago

Ground ~20,000 ft ~40,000 ft Winds

METAR

KHOE 161135Z AUTO 02003KT 10SM CLR 04/00 A3026 RMK AO2

TAF

Not found

Frequencies

Unicom 122.90 MHz CTAF
Approach 126.60 MHz VALDOSTA APP/DEP
Approach 119.52 MHz VALDOSTA APP/DEP
Warning: Do not use this data for real-world aviation or navigation. No guarantee of current accuracy is given.